Bruce Mines, Canada
Current Conditions -  °F | °C
As of 10:55 PM on Saturday 24 Jan 2015 (Local Time) from KDRM Reporting Station
Clear Clear  
Wind Chill:   Ceiling: Unl
Heat Index: 11°   Visibility: 10mi
Dew Point:   Wind: 7mph
Humidity: 71%   Direction: 10°N
Pressure: 29.72"   Gusts: NA
Location:  46.3°N, 83.79°W
Report Text: KDRM 250355Z AUTO 01006KT 10SM CLR M12/M16 A2972 RMK AO2 T11171160
Loading
Personal Weather Stations






























Interactive Weather Map New forecast layout! Learn more

10-Day Weather Forecast

Advertisements
Track Severe Weather on mobile